Time;durP1;ratioP1;P1;durP2;ratioP2;P2;SDS_P1;SDS_P2;PMS_P1;PMS_P2;Temp;Humidity;BMP_temperature;BMP_pressure;BME280_temperature;BME280_humidity;BME280_pressure;Samples;Min_cycle;Max_cycle;Signal;HPM_P1;HPM_P2
2022/02/20 00:00:37;;;;;;;15.15;5.38;;;;;;;6.41;73.35;99413.41;5054798;28;20463;-65
2022/02/20 00:03:21;;;;;;;14.35;4.93;;;;;;;6.43;73.45;99418.59;5033916;28;20084;-65
2022/02/20 00:06:05;;;;;;;17.45;5.53;;;;;;;6.42;73.09;99410.00;5035460;28;20068;-65
2022/02/20 00:08:49;;;;;;;15.32;4.57;;;;;;;6.42;73.83;99425.44;5033996;28;20049;-65
2022/02/20 00:11:33;;;;;;;15.75;4.28;;;;;;;6.43;73.95;99427.19;5034053;28;20095;-64
2022/02/20 00:14:19;;;;;;;12.55;4.20;;;;;;;6.44;73.99;99436.66;5035187;28;20072;-65
2022/02/20 00:17:03;;;;;;;16.65;5.40;;;;;;;6.43;73.96;99436.63;5034386;28;20531;-65
2022/02/20 00:19:50;;;;;;;20.40;6.45;;;;;;;6.46;74.07;99454.72;5035207;28;20567;-65
2022/02/20 00:22:34;;;;;;;18.73;4.47;;;;;;;6.45;73.51;99446.09;5035214;28;20191;-65
2022/02/20 00:25:20;;;;;;;21.65;5.18;;;;;;;6.45;73.95;99456.41;5033608;28;20068;-65
2022/02/20 00:28:05;;;;;;;20.40;5.63;;;;;;;6.46;73.52;99455.56;5034288;28;20489;-64
2022/02/20 00:30:49;;;;;;;18.15;5.88;;;;;;;6.45;73.54;99466.72;5034099;28;20052;-64
2022/02/20 00:33:34;;;;;;;13.13;4.32;;;;;;;6.46;73.90;99470.16;5034289;28;20041;-64
2022/02/20 00:36:17;;;;;;;16.25;4.22;;;;;;;6.45;74.24;99479.56;5033378;28;20048;-65
2022/02/20 00:39:05;;;;;;;16.70;5.03;;;;;;;6.44;73.70;99485.56;5034559;28;20510;-64
2022/02/20 00:41:49;;;;;;;14.88;4.47;;;;;;;6.46;74.09;99488.19;5033603;28;20048;-64
2022/02/20 00:44:33;;;;;;;20.08;6.55;;;;;;;6.44;74.00;99488.13;5033309;28;20114;-65
2022/02/20 00:47:17;;;;;;;19.10;5.55;;;;;;;6.46;73.91;99501.91;5034552;28;20102;-65
2022/02/20 00:50:04;;;;;;;16.95;5.70;;;;;;;6.44;73.92;99497.56;5034261;28;20044;-65
2022/02/20 00:52:48;;;;;;;26.73;5.72;;;;;;;6.44;73.87;99511.31;5033404;28;20136;-64
2022/02/20 00:55:31;;;;;;;18.30;6.05;;;;;;;6.46;73.79;99508.78;5034227;28;20121;-64
2022/02/20 00:58:18;;;;;;;20.50;4.63;;;;;;;6.46;73.63;99519.94;5033784;28;20049;-64
2022/02/20 01:01:04;;;;;;;21.02;4.70;;;;;;;6.45;73.78;99520.78;5034028;28;20049;-64
2022/02/20 01:03:48;;;;;;;10.30;4.82;;;;;;;6.46;74.01;99535.38;5013407;28;20072;-64
2022/02/20 01:06:32;;;;;;;24.90;7.22;;;;;;;6.45;73.64;99543.09;5013315;28;20121;-64
2022/02/20 01:09:15;;;;;;;23.02;5.85;;;;;;;6.47;74.17;99538.81;5012522;28;20153;-65
2022/02/20 01:12:02;;;;;;;15.45;4.93;;;;;;;6.47;74.34;99551.69;5014268;28;20076;-65
2022/02/20 01:14:47;;;;;;;17.38;5.47;;;;;;;6.45;74.21;99546.50;5013312;28;20119;-65
2022/02/20 01:17:34;;;;;;;19.77;5.18;;;;;;;6.46;74.22;99547.41;5014528;28;20405;-65
2022/02/20 01:20:18;;;;;;;24.60;6.18;;;;;;;6.47;74.08;99551.69;5014512;28;20163;-65
2022/02/20 01:23:02;;;;;;;24.08;5.63;;;;;;;6.46;73.69;99566.28;5013889;28;20127;-64
2022/02/20 01:25:48;;;;;;;14.73;6.25;;;;;;;6.46;74.50;99568.84;5014239;28;20099;-65
2022/02/20 01:28:32;;;;;;;13.52;5.38;;;;;;;6.47;74.43;99559.41;5014010;28;20088;-65
2022/02/20 01:31:16;;;;;;;14.57;5.15;;;;;;;6.46;74.18;99573.16;5013699;28;20108;-65
2022/02/20 01:34:00;;;;;;;21.13;5.50;;;;;;;6.46;74.40;99579.16;5014294;28;20052;-64
2022/02/20 01:36:45;;;;;;;18.05;5.85;;;;;;;6.45;74.31;99579.97;5014195;28;20088;-65
2022/02/20 01:39:29;;;;;;;15.70;5.25;;;;;;;6.45;74.37;99584.28;5013861;28;20587;-65
2022/02/20 01:42:13;;;;;;;19.48;5.28;;;;;;;6.44;74.69;99582.53;5013502;28;20076;-64
2022/02/20 01:44:57;;;;;;;25.42;5.95;;;;;;;6.44;74.36;99583.38;5013698;28;20080;-64
2022/02/20 01:47:41;;;;;;;14.98;4.55;;;;;;;6.42;74.39;99582.47;5013824;28;20100;-65
2022/02/20 01:50:25;;;;;;;;;;;;;;;6.40;74.55;99579.88;5013483;28;20096;-65
2022/02/20 01:53:12;;;;;;;11.73;4.03;;;;;;;6.41;74.13;99588.44;5013404;28;19923;-64
2022/02/20 01:55:56;;;;;;;18.13;4.57;;;;;;;6.38;73.87;99588.41;5012781;28;20065;-65
2022/02/20 01:58:41;;;;;;;13.95;4.50;;;;;;;6.37;73.94;99592.66;5013941;28;20420;-64
2022/02/20 02:01:25;;;;;;;13.68;4.70;;;;;;;6.36;74.43;99596.06;5015238;28;20048;-65
2022/02/20 02:04:09;;;;;;;13.48;4.55;;;;;;;6.35;74.28;99607.19;5038473;28;20044;-65
2022/02/20 02:06:55;;;;;;;16.90;5.25;;;;;;;6.35;74.19;99601.19;5038252;28;20128;-65
2022/02/20 02:09:39;;;;;;;18.35;5.45;;;;;;;6.36;74.42;99605.50;5038447;28;20124;-65
2022/02/20 02:12:23;;;;;;;20.73;5.78;;;;;;;6.36;73.86;99610.66;5038028;28;20052;-65
2022/02/20 02:15:09;;;;;;;;;;;;;;;6.34;74.22;99605.44;5053279;28;20114;-65
2022/02/20 02:17:53;;;;;;;11.57;3.35;;;;;;;6.33;73.79;99603.69;5053003;28;20427;-65
2022/02/20 02:20:40;;;;;;;14.10;3.75;;;;;;;6.34;74.37;99602.00;5053685;28;20051;-64
2022/02/20 02:23:25;;;;;;;17.80;5.28;;;;;;;6.34;74.47;99604.59;5057198;28;20041;-65
2022/02/20 02:26:10;;;;;;;13.88;4.47;;;;;;;6.33;74.38;99592.53;5041985;28;20093;-65
2022/02/20 02:28:54;;;;;;;19.10;5.15;;;;;;;6.34;74.34;99599.44;5041726;28;20415;-65
2022/02/20 02:31:38;;;;;;;24.60;5.50;;;;;;;6.34;74.45;99595.13;5057254;28;20468;-65
2022/02/20 02:34:22;;;;;;;15.55;4.60;;;;;;;6.35;74.37;99598.59;5056993;28;20174;-65
2022/02/20 02:37:06;;;;;;;30.40;6.32;;;;;;;6.32;74.41;99601.94;5056831;28;20055;-64
2022/02/20 02:39:51;;;;;;;;;;;;;;;6.30;74.47;99592.47;5042003;28;20416;-65
2022/02/20 02:42:35;;;;;;;17.63;6.72;;;;;;;6.29;74.66;99599.31;5041920;28;19919;-65
2022/02/20 02:45:23;;;;;;;16.40;5.70;;;;;;;6.30;74.31;99602.75;5056991;28;20110;-65
2022/02/20 02:48:07;;;;;;;16.52;4.50;;;;;;;6.29;74.30;99596.75;5056957;28;20524;-65
2022/02/20 02:50:52;;;;;;;17.42;5.13;;;;;;;6.28;74.38;99600.16;5056916;28;20566;-64
2022/02/20 02:53:36;;;;;;;19.35;6.13;;;;;;;6.27;74.42;99598.41;5041217;28;20052;-65
2022/02/20 02:56:20;;;;;;;15.30;4.80;;;;;;;6.28;74.41;99599.25;5056318;28;20055;-65
2022/02/20 02:59:05;;;;;;;;;;;;;;;6.27;74.69;99594.94;5056584;28;20110;-66
2022/02/20 03:01:50;;;;;;;23.77;6.15;;;;;;;6.27;74.41;99597.50;5056137;28;19923;-65
2022/02/20 03:04:34;;;;;;;19.20;5.65;;;;;;;6.25;74.36;99602.63;5056142;28;20043;-64
2022/02/20 03:07:18;;;;;;;19.60;5.50;;;;;;;6.26;74.85;99606.94;5041633;28;20040;-65
2022/02/20 03:10:03;;;;;;;18.48;4.65;;;;;;;6.25;74.88;99612.94;5056237;28;20068;-65
2022/02/20 03:12:46;;;;;;;;;;;;;;;6.25;74.73;99620.66;5056098;28;20040;-64
2022/02/20 03:15:33;;;;;;;23.95;5.20;;;;;;;6.23;74.19;99612.88;5055894;28;20374;-65
2022/02/20 03:18:17;;;;;;;19.77;5.22;;;;;;;6.22;74.80;99616.31;5055857;28;20079;-65
2022/02/20 03:21:04;;;;;;;22.15;5.72;;;;;;;6.23;74.49;99622.31;5040866;28;20048;-64
2022/02/20 03:23:48;;;;;;;21.70;5.18;;;;;;;6.25;74.80;99615.50;5040938;28;20558;-64
2022/02/20 03:26:33;;;;;;;22.10;5.20;;;;;;;6.25;74.24;99615.50;5041195;28;20066;-65
2022/02/20 03:29:16;;;;;;;19.58;5.95;;;;;;;6.25;74.52;99625.78;5041049;28;20064;-65
2022/02/20 03:32:00;;;;;;;20.98;5.90;;;;;;;6.24;74.94;99608.63;5054407;28;20075;-64
2022/02/20 03:34:44;;;;;;;28.05;6.32;;;;;;;6.25;74.76;99602.63;5055735;28;20442;-64
2022/02/20 03:37:29;;;;;;;20.55;5.07;;;;;;;6.25;74.37;99594.91;5041036;28;20128;-65
2022/02/20 03:40:13;;;;;;;;;;;;;;;6.23;74.90;99589.72;5056068;28;20095;-64
2022/02/20 03:42:59;;;;;;;18.27;5.80;;;;;;;6.24;74.94;99582.88;5040717;28;20007;-64
2022/02/20 03:45:43;;;;;;;31.33;7.72;;;;;;;6.25;74.95;99585.47;5055562;28;20047;-65
2022/02/20 03:48:27;;;;;;;21.33;6.45;;;;;;;6.25;74.60;99582.91;5055775;28;20507;-65
2022/02/20 03:51:13;;;;;;;21.80;6.00;;;;;;;6.27;75.12;99582.06;5040719;28;20550;-64
2022/02/20 03:53:58;;;;;;;24.08;6.07;;;;;;;6.27;75.17;99582.97;5055408;28;20047;-64
2022/02/20 03:56:42;;;;;;;16.20;5.88;;;;;;;6.27;74.47;99572.66;5040108;28;20091;-65
2022/02/20 03:59:26;;;;;;;25.38;6.80;;;;;;;6.27;75.18;99566.63;5055535;28;20095;-65
2022/02/20 04:02:10;;;;;;;25.38;7.03;;;;;;;6.28;74.97;99564.13;5040245;28;20052;-64
2022/02/20 04:04:56;;;;;;;15.25;5.43;;;;;;;6.27;75.09;99561.50;5039874;28;20047;-65
2022/02/20 04:07:40;;;;;;;24.35;5.72;;;;;;;6.27;75.26;99564.94;5055246;28;20098;-65
2022/02/20 04:10:24;;;;;;;;;;;;;;;6.26;74.63;99565.78;5040327;28;20099;-65
2022/02/20 04:13:08;;;;;;;21.63;4.90;;;;;;;6.27;75.19;99559.81;5040143;28;20399;-64
2022/02/20 04:15:52;;;;;;;17.50;5.63;;;;;;;6.28;75.31;99565.81;5040659;28;20178;-65
2022/02/20 04:18:37;;;;;;;17.15;4.30;;;;;;;6.27;74.93;99562.38;5054665;28;20056;-65
2022/02/20 04:21:24;;;;;;;;;;;;;;;6.27;75.40;99566.63;5055437;28;20043;-64
2022/02/20 04:24:08;;;;;;;18.33;4.90;;;;;;;6.26;74.83;99565.78;5054627;28;19919;-65
2022/02/20 04:26:52;;;;;;;17.95;5.60;;;;;;;6.27;74.71;99562.38;5039830;28;20449;-65
2022/02/20 04:29:35;;;;;;;20.70;5.90;;;;;;;6.28;74.99;99553.81;5055117;28;20055;-64
2022/02/20 04:32:19;;;;;;;17.17;5.07;;;;;;;6.28;75.60;99564.13;5054899;28;20083;-65
2022/02/20 04:35:04;;;;;;;23.10;5.18;;;;;;;6.30;75.27;99549.59;5040124;28;20055;-65
2022/02/20 04:37:48;;;;;;;;;;;;;;;6.30;75.21;99551.28;5055253;28;20118;-65
2022/02/20 04:40:32;;;;;;;18.85;4.95;;;;;;;6.29;75.31;99529.84;5039126;28;19919;-65
2022/02/20 04:43:16;;;;;;;;;;;;;;;6.29;75.71;99518.66;5040018;28;20079;-64
2022/02/20 04:46:00;;;;;;;17.30;5.15;;;;;;;6.31;75.75;99524.72;5054504;28;19943;-65
2022/02/20 04:48:44;;;;;;;20.13;6.03;;;;;;;6.31;75.84;99517.84;5054241;28;20098;-65
2022/02/20 04:51:28;;;;;;;20.10;5.18;;;;;;;6.33;75.55;99515.31;5054116;28;20462;-65
2022/02/20 04:54:12;;;;;;;25.95;5.35;;;;;;;6.33;75.51;99503.31;5054001;28;20126;-65
2022/02/20 04:56:56;;;;;;;29.45;7.13;;;;;;;6.35;75.49;99487.94;5054029;28;20126;-65
2022/02/20 04:59:40;;;;;;;21.85;5.88;;;;;;;6.34;75.33;99470.75;5039352;28;20048;-65
2022/02/20 05:02:23;;;;;;;13.93;4.65;;;;;;;6.36;75.43;99479.38;5053899;28;20114;-64
2022/02/20 05:05:07;;;;;;;25.30;6.80;;;;;;;6.37;75.31;99478.53;5054071;28;20048;-65
2022/02/20 05:07:52;;;;;;;;;;;;;;;6.36;75.84;99477.66;5054245;28;20098;-64
2022/02/20 05:10:36;;;;;;;17.67;4.82;;;;;;;6.38;75.25;99491.44;5053770;28;19923;-65
2022/02/20 05:13:20;;;;;;;17.15;5.00;;;;;;;6.38;75.72;99476.00;5053416;28;20071;-65
2022/02/20 05:16:04;;;;;;;24.80;6.38;;;;;;;6.40;75.67;99483.75;5053930;28;20198;-65
2022/02/20 05:18:48;;;;;;;16.25;6.47;;;;;;;6.42;75.78;99470.91;5038520;28;20136;-64
2022/02/20 05:21:32;;;;;;;19.58;5.95;;;;;;;6.43;75.84;99460.66;5053919;28;20584;-65
2022/02/20 05:24:17;;;;;;;;;;;;;;;6.43;75.72;99470.09;5038992;28;20116;-65
2022/02/20 05:27:01;;;;;;;17.85;5.65;;;;;;;6.43;75.95;99468.38;5053522;28;20334;-65
2022/02/20 05:29:45;;;;;;;19.23;5.22;;;;;;;6.44;75.60;99466.69;5053847;28;20450;-65
2022/02/20 05:32:29;;;;;;;18.20;5.88;;;;;;;6.45;75.52;99458.13;5038895;28;20183;-65
2022/02/20 05:35:13;;;;;;;18.70;5.80;;;;;;;6.46;75.55;99459.88;5053858;28;20170;-64
2022/02/20 05:37:57;;;;;;;;;;;;;;;6.45;76.04;99464.13;5039435;28;20102;-65
2022/02/20 05:40:42;;;;;;;22.73;6.53;;;;;;;6.46;75.87;99460.72;5053771;28;20375;-65
2022/02/20 05:43:25;;;;;;;;;;;;;;;6.45;76.18;99463.28;5053899;28;20107;-64
2022/02/20 05:46:09;;;;;;;25.95;5.35;;;;;;;6.46;75.78;99457.28;5053406;28;19919;-65
2022/02/20 05:48:57;;;;;;;18.67;5.45;;;;;;;6.47;75.83;99446.13;5053541;28;20068;-65
2022/02/20 05:51:41;;;;;;;21.88;5.25;;;;;;;6.47;76.16;99439.28;5038104;28;20094;-64
2022/02/20 05:54:25;;;;;;;14.40;5.18;;;;;;;6.49;76.36;99429.03;5038832;28;20036;-64
2022/02/20 05:57:11;;;;;;;22.50;6.40;;;;;;;6.50;76.06;99423.03;5038414;28;20060;-65
2022/02/20 05:59:55;;;;;;;14.45;5.75;;;;;;;6.50;76.03;99425.63;5053199;28;20056;-65
2022/02/20 06:02:42;;;;;;;15.15;4.72;;;;;;;6.50;75.86;99410.16;5052912;28;20060;-65
2022/02/20 06:05:28;;;;;;;25.17;6.07;;;;;;;6.50;76.03;99410.16;5038511;28;20083;-65
2022/02/20 06:08:12;;;;;;;17.80;5.22;;;;;;;6.52;76.01;99411.97;5038011;28;20095;-64
2022/02/20 06:10:57;;;;;;;19.90;6.75;;;;;;;6.52;75.95;99409.38;5038002;28;20535;-65
2022/02/20 06:13:41;;;;;;;28.83;6.40;;;;;;;6.53;76.52;99393.09;5037805;28;20048;-65
2022/02/20 06:16:25;;;;;;;16.27;5.50;;;;;;;6.55;76.25;99388.84;5052707;28;20411;-64
2022/02/20 06:19:09;;;;;;;22.83;6.03;;;;;;;6.55;76.31;99383.69;5052943;28;20475;-65
2022/02/20 06:21:56;;;;;;;16.85;5.07;;;;;;;6.57;76.03;99385.44;5053472;28;20400;-65
2022/02/20 06:24:40;;;;;;;31.35;5.75;;;;;;;6.55;76.14;99373.38;5053111;28;20048;-65
2022/02/20 06:27:24;;;;;;;20.67;5.30;;;;;;;6.57;76.21;99359.69;5053070;28;20047;-65
2022/02/20 06:30:08;;;;;;;19.77;5.32;;;;;;;6.60;76.05;99375.19;5053040;28;20484;-65
2022/02/20 06:32:57;;;;;;;13.18;4.95;;;;;;;6.59;76.41;99363.16;5052906;28;20048;-65
2022/02/20 06:35:41;;;;;;;15.60;5.05;;;;;;;6.59;76.20;99358.91;5052518;28;20098;-64
2022/02/20 06:38:25;;;;;;;13.27;3.95;;;;;;;6.62;75.84;99361.50;5052865;28;20048;-65
2022/02/20 06:41:10;;;;;;;13.05;4.72;;;;;;;6.63;76.37;99365.81;5037931;28;20162;-64
2022/02/20 06:43:55;;;;;;;18.48;6.13;;;;;;;6.63;76.14;99380.41;5037758;28;20477;-65
2022/02/20 06:46:39;;;;;;;17.33;4.78;;;;;;;6.63;76.68;99389.00;5038256;28;20162;-64
2022/02/20 06:49:22;;;;;;;11.27;4.45;;;;;;;6.65;76.81;99397.63;5038138;28;20056;-65
2022/02/20 06:52:07;;;;;;;18.30;5.18;;;;;;;6.65;76.27;99401.94;5053106;28;20107;-64
2022/02/20 06:54:51;;;;;;;14.57;5.15;;;;;;;6.66;76.38;99401.94;5052591;28;20048;-65
2022/02/20 06:57:36;;;;;;;27.08;5.50;;;;;;;6.66;76.80;99395.94;5052966;28;20047;-65
2022/02/20 07:00:20;;;;;;;14.00;4.88;;;;;;;6.65;76.53;99407.94;5052717;28;20138;-64
2022/02/20 07:03:04;;;;;;;18.20;4.97;;;;;;;6.67;76.30;99395.09;5037354;28;20068;-65
2022/02/20 07:05:48;;;;;;;20.70;5.68;;;;;;;6.68;76.08;99396.84;5052634;28;20495;-64
2022/02/20 07:08:32;;;;;;;15.95;5.13;;;;;;;6.67;76.41;99401.09;5054934;28;20052;-64
2022/02/20 07:11:16;;;;;;;20.73;6.43;;;;;;;6.67;76.81;99400.25;5055991;28;20044;-65
2022/02/20 07:14:00;;;;;;;21.27;5.90;;;;;;;6.66;76.89;99406.25;5055692;28;20123;-64
2022/02/20 07:16:44;;;;;;;21.88;5.30;;;;;;;6.68;76.71;99420.88;5055848;28;20075;-65
2022/02/20 07:19:28;;;;;;;12.50;4.05;;;;;;;6.70;76.63;99431.19;5056457;28;20171;-64
2022/02/20 07:22:12;;;;;;;14.13;3.97;;;;;;;6.69;76.56;99416.63;5040884;28;20223;-65
2022/02/20 07:24:55;;;;;;;17.75;5.18;;;;;;;6.70;76.63;99423.47;5056062;28;20071;-65
2022/02/20 07:27:42;;;;;;;20.17;4.50;;;;;;;6.70;76.80;99420.91;5056042;28;20507;-65
2022/02/20 07:30:28;;;;;;;7.57;3.08;;;;;;;6.72;76.91;99426.09;5041089;28;20047;-65
2022/02/20 07:33:16;;;;;;;18.30;5.13;;;;;;;6.72;76.91;99432.09;5055567;28;20132;-64
2022/02/20 07:36:00;;;;;;;16.35;4.85;;;;;;;6.73;76.52;99430.41;5041001;28;20136;-65
2022/02/20 07:38:44;;;;;;;14.43;5.10;;;;;;;6.74;76.40;99434.75;5040940;28;20134;-64
2022/02/20 07:41:28;;;;;;;8.73;3.92;;;;;;;6.74;77.00;99440.75;5056202;28;20047;-65
2022/02/20 07:44:12;;;;;;;15.82;4.22;;;;;;;6.73;76.92;99439.00;5055819;28;20067;-65
2022/02/20 07:46:56;;;;;;;16.70;4.30;;;;;;;6.74;76.82;99452.75;5040227;28;20519;-65
2022/02/20 07:49:40;;;;;;;16.17;4.13;;;;;;;6.75;77.04;99441.63;5040705;28;20506;-65
2022/02/20 07:52:25;;;;;;;12.85;5.13;;;;;;;6.75;76.81;99427.03;5040385;28;20595;-64
2022/02/20 07:55:09;;;;;;;10.95;4.65;;;;;;;6.75;76.99;99437.34;5040334;28;20048;-65
2022/02/20 07:57:53;;;;;;;13.75;4.47;;;;;;;6.77;76.92;99445.13;5055315;28;20052;-64
2022/02/20 08:00:38;;;;;;;10.73;4.10;;;;;;;6.78;77.16;99445.13;5040331;28;20047;-64
2022/02/20 08:03:22;;;;;;;17.95;4.55;;;;;;;6.78;77.26;99442.56;5034251;28;20559;-65
2022/02/20 08:06:06;;;;;;;13.05;4.00;;;;;;;6.79;76.92;99436.56;5035549;28;20060;-64
2022/02/20 08:08:51;;;;;;;11.07;3.30;;;;;;;6.80;77.08;99442.56;5034430;28;20099;-65
2022/02/20 08:11:35;;;;;;;7.18;3.30;;;;;;;6.80;77.35;99440.88;5035424;28;20099;-65
2022/02/20 08:14:19;;;;;;;15.90;4.32;;;;;;;6.81;77.19;99434.00;5035034;28;20091;-65
2022/02/20 08:17:03;;;;;;;10.85;3.78;;;;;;;6.81;76.95;99432.31;5034749;28;20404;-65
2022/02/20 08:19:47;;;;;;;5.97;3.72;;;;;;;6.81;77.09;99416.88;5034409;28;20420;-65
2022/02/20 08:22:31;;;;;;;10.52;3.40;;;;;;;6.80;77.37;99417.69;5035005;28;20464;-64
2022/02/20 08:25:15;;;;;;;7.53;3.00;;;;;;;6.83;77.28;99406.59;5034249;28;20408;-64
2022/02/20 08:28:04;;;;;;;15.68;4.15;;;;;;;6.84;77.29;99403.19;5034856;28;20044;-65
2022/02/20 08:30:48;;;;;;;8.82;3.60;;;;;;;6.85;76.95;99394.63;5034090;28;20045;-64
2022/02/20 08:33:32;;;;;;;15.25;4.28;;;;;;;6.84;77.69;99390.28;5034761;28;20047;-65
2022/02/20 08:36:16;;;;;;;7.00;3.45;;;;;;;6.86;77.27;99388.63;5033635;28;20639;-65
2022/02/20 08:39:00;;;;;;;10.30;3.20;;;;;;;6.86;77.17;99392.06;5034504;28;20044;-64
2022/02/20 08:41:44;;;;;;;10.30;3.53;;;;;;;6.86;77.48;99396.34;5034479;28;20052;-64
2022/02/20 08:44:33;;;;;;;8.40;3.30;;;;;;;6.88;77.47;99402.41;5034900;28;20416;-65
2022/02/20 08:47:18;;;;;;;6.53;2.92;;;;;;;6.89;77.26;99411.88;5033842;28;20076;-65
2022/02/20 08:50:03;;;;;;;14.93;3.92;;;;;;;6.90;77.38;99403.31;5034712;28;20068;-65
2022/02/20 08:52:49;;;;;;;6.25;3.33;;;;;;;6.90;77.29;99390.44;5033161;28;20101;-65
2022/02/20 08:55:33;;;;;;;7.50;3.72;;;;;;;6.92;76.92;99409.38;5033679;28;20056;-65
2022/02/20 08:58:17;;;;;;;7.57;3.88;;;;;;;6.92;77.27;99411.94;5034549;28;20052;-64
2022/02/20 09:01:04;;;;;;;12.75;4.07;;;;;;;6.93;77.69;99400.78;5034344;28;20111;-65
2022/02/20 09:03:48;;;;;;;9.80;3.15;;;;;;;6.92;77.13;99399.06;5013730;28;20053;-65
2022/02/20 09:06:33;;;;;;;11.48;4.13;;;;;;;6.93;77.52;99380.16;5013677;28;20099;-65
2022/02/20 09:09:17;;;;;;;8.73;3.67;;;;;;;6.95;77.36;99375.91;5013490;28;20049;-65
2022/02/20 09:12:01;;;;;;;;;;;;;;;6.95;77.71;99377.63;5014446;28;20045;-65
2022/02/20 09:14:46;;;;;;;14.00;4.88;;;;;;;6.95;77.52;99398.25;5013033;28;19925;-65
2022/02/20 09:17:30;;;;;;;14.15;3.88;;;;;;;6.96;77.50;99402.56;5013788;28;20049;-64
2022/02/20 09:20:14;;;;;;;;;;;;;;;6.96;77.70;99406.00;5013727;28;20473;-65
2022/02/20 09:23:01;;;;;;;7.45;3.33;;;;;;;6.97;77.26;99412.03;5013197;28;20011;-65
2022/02/20 09:25:45;;;;;;;12.32;3.75;;;;;;;6.98;77.20;99403.47;5013337;28;20524;-65
2022/02/20 09:28:29;;;;;;;13.52;4.75;;;;;;;6.99;77.29;99397.47;5014399;28;20096;-65
2022/02/20 09:31:13;;;;;;;17.08;4.75;;;;;;;6.98;77.22;99394.03;5013359;28;20049;-65
2022/02/20 09:33:57;;;;;;;13.48;4.45;;;;;;;7.00;77.58;99405.22;5013226;28;20516;-65
2022/02/20 09:36:41;;;;;;;10.57;3.67;;;;;;;7.01;77.54;99416.38;5013198;28;20076;-64
2022/02/20 09:39:25;;;;;;;12.00;3.97;;;;;;;7.01;77.54;99406.09;5013773;28;20555;-65
2022/02/20 09:42:10;;;;;;;14.85;4.68;;;;;;;7.04;77.79;99415.59;5013907;28;20117;-65
2022/02/20 09:44:54;;;;;;;15.40;5.55;;;;;;;7.03;77.83;99406.13;5012922;28;20053;-64
2022/02/20 09:47:40;;;;;;;9.90;3.67;;;;;;;7.03;77.57;99407.00;5013438;28;20049;-64
2022/02/20 09:50:25;;;;;;;10.63;4.82;;;;;;;7.02;77.88;99387.22;5012853;28;20053;-64
2022/02/20 09:53:09;;;;;;;;;;;;;;;7.03;77.80;99388.94;5013954;28;20516;-64
2022/02/20 09:55:56;;;;;;;10.85;4.43;;;;;;;7.03;77.75;99385.53;5014095;28;19925;-65
2022/02/20 09:58:41;;;;;;;11.43;3.65;;;;;;;7.01;77.89;99360.59;5013475;28;20104;-65
2022/02/20 10:01:25;;;;;;;13.48;4.50;;;;;;;7.05;77.46;99365.81;5014919;28;20103;-65
2022/02/20 10:04:14;;;;;;;17.05;5.13;;;;;;;7.06;77.87;99367.56;5053623;28;20052;-64
2022/02/20 10:06:58;;;;;;;11.32;3.72;;;;;;;7.06;77.55;99347.78;5052998;28;20511;-65
2022/02/20 10:09:42;;;;;;;10.52;4.13;;;;;;;7.07;77.72;99356.41;5038673;28;20063;-65
2022/02/20 10:12:28;;;;;;;12.18;3.55;;;;;;;7.08;77.49;99351.28;5038152;28;20055;-65
2022/02/20 10:15:41;;;;;;;12.32;3.67;;;;;;;7.11;78.16;99353.03;5037915;28;20090;-65
2022/02/20 10:18:30;;;;;;;11.23;4.53;;;;;;;7.10;77.95;99365.06;5037937;28;20471;-64
2022/02/20 10:21:20;;;;;;;5.85;3.40;;;;;;;7.11;77.82;99353.03;5053476;28;20052;-64
2022/02/20 10:24:07;;;;;;;15.70;4.28;;;;;;;7.12;77.86;99340.19;5038089;28;20623;-65
2022/02/20 10:26:52;;;;;;;9.52;3.53;;;;;;;7.13;77.69;99344.50;5037894;28;20083;-65
2022/02/20 10:29:36;;;;;;;10.15;3.38;;;;;;;7.16;77.82;99335.94;5037844;28;20124;-65
2022/02/20 10:32:21;;;;;;;11.60;3.72;;;;;;;7.16;77.84;99326.50;5052850;28;20047;-64
2022/02/20 10:35:07;;;;;;;11.45;3.03;;;;;;;7.19;77.87;99324.81;5038345;28;20044;-64
2022/02/20 10:37:56;;;;;;;12.63;4.00;;;;;;;7.19;77.64;99345.44;5052571;28;20107;-65
2022/02/20 10:40:43;;;;;;;8.57;3.70;;;;;;;7.22;77.98;99335.19;5038172;28;20507;-65
2022/02/20 10:43:31;;;;;;;8.30;3.15;;;;;;;7.23;77.81;99342.09;5041918;28;20523;-65
2022/02/20 10:46:17;;;;;;;7.80;3.85;;;;;;;7.25;77.55;99349.00;5041995;28;20047;-65
2022/02/20 10:49:04;;;;;;;12.52;3.78;;;;;;;7.25;77.72;99346.41;5056792;28;20102;-65
2022/02/20 10:51:48;;;;;;;8.80;3.70;;;;;;;7.26;77.62;99327.53;5041631;28;20404;-65
2022/02/20 10:55:48;;;;;;;7.80;3.70;;;;;;;7.28;77.67;99323.28;5132287;27;20190;-64
2022/02/20 10:58:40;;;;;;;12.15;3.90;;;;;;;7.30;77.93;99323.31;5116461;28;20104;-65
2022/02/20 11:01:26;;;;;;;13.10;4.25;;;;;;;7.31;77.90;99319.91;5116074;28;20047;-65
2022/02/20 11:04:11;;;;;;;10.80;3.42;;;;;;;7.33;77.74;99323.34;5116420;28;20406;-65
2022/02/20 11:06:55;;;;;;;12.65;3.85;;;;;;;7.32;77.69;99340.53;5131664;28;20111;-65
2022/02/20 11:09:39;;;;;;;15.23;4.40;;;;;;;7.34;78.01;99337.13;5115987;28;20045;-65
2022/02/20 11:12:24;;;;;;;9.73;4.63;;;;;;;7.33;77.76;99338.81;5116504;28;20054;-65
2022/02/20 11:15:08;;;;;;;15.23;4.47;;;;;;;7.35;77.74;99328.56;5116085;28;20045;-65
2022/02/20 11:17:55;;;;;;;10.57;4.05;;;;;;;7.35;77.73;99332.00;5131768;28;20097;-65
2022/02/20 11:20:42;;;;;;;10.50;4.80;;;;;;;7.37;77.91;99321.72;5115921;28;20050;-65
2022/02/20 11:23:28;;;;;;;15.60;4.45;;;;;;;7.36;77.89;99319.97;5131725;28;20050;-65
2022/02/20 11:26:14;;;;;;;18.45;3.97;;;;;;;7.36;77.63;99318.25;5115957;28;20054;-64
2022/02/20 11:28:58;;;;;;;18.15;5.00;;;;;;;7.38;77.95;99300.25;5116233;28;20119;-64
2022/02/20 11:31:44;;;;;;;;;;;;;;;7.38;77.94;99300.25;5131764;28;20047;-65
2022/02/20 11:34:31;;;;;;;14.30;4.95;;;;;;;7.38;77.94;99298.53;5130726;28;19970;-64
2022/02/20 11:37:15;;;;;;;16.38;4.20;;;;;;;7.38;78.08;99308.00;5130885;28;20105;-65
2022/02/20 11:40:02;;;;;;;13.95;3.63;;;;;;;7.38;77.56;99284.78;5115264;28;20113;-64
2022/02/20 11:42:58;;;;;;;19.02;5.07;;;;;;;7.39;77.84;99273.63;5115342;28;20047;-64
2022/02/20 11:46:18;;;;;;;11.80;3.63;;;;;;;7.38;77.94;99259.00;5130852;28;20613;-65
2022/02/20 11:49:02;;;;;;;17.75;4.70;;;;;;;7.39;78.03;99271.06;5090193;28;20037;-65
2022/02/20 11:52:15;;;;;;;15.52;3.83;;;;;;;7.41;77.96;99257.34;5131223;28;20046;-65
2022/02/20 11:55:13;;;;;;;19.33;5.30;;;;;;;7.40;77.95;99262.44;5107740;28;20134;-64
2022/02/20 11:58:23;;;;;;;15.10;4.60;;;;;;;7.40;77.86;99257.28;5115063;28;20130;-64
2022/02/20 12:01:10;;;;;;;15.40;5.45;;;;;;;7.41;77.97;99256.47;5115108;28;20097;-66
2022/02/20 12:04:03;;;;;;;15.77;4.68;;;;;;;7.40;77.98;99257.28;5114964;28;20107;-65
2022/02/20 12:06:47;;;;;;;19.23;5.55;;;;;;;7.41;78.05;99264.19;5103408;28;20042;-65
2022/02/20 12:09:35;;;;;;;13.02;5.20;;;;;;;7.43;77.96;99263.41;5116877;28;20089;-65
2022/02/20 12:12:33;;;;;;;13.27;4.45;;;;;;;7.44;77.83;99252.25;5116771;28;20058;-65
2022/02/20 12:15:36;;;;;;;11.73;4.40;;;;;;;7.44;77.86;99254.81;5100973;28;20528;-65
2022/02/20 12:18:20;;;;;;;17.55;4.50;;;;;;;7.44;77.89;99252.25;5101485;28;20134;-65
2022/02/20 12:21:07;;;;;;;15.20;4.90;;;;;;;7.45;77.94;99245.34;5101193;28;20047;-66
2022/02/20 12:23:51;;;;;;;13.95;4.40;;;;;;;7.45;77.86;99240.19;5101329;28;20077;-65
2022/02/20 12:26:54;;;;;;;22.05;4.85;;;;;;;7.45;77.91;99241.09;5101479;28;20104;-65
2022/02/20 12:29:43;;;;;;;16.77;5.90;;;;;;;7.45;77.85;99235.03;5116214;28;20077;-64
2022/02/20 12:32:29;;;;;;;15.95;5.00;;;;;;;7.45;77.99;99235.03;5100785;28;20050;-65
2022/02/20 12:35:20;;;;;;;15.00;5.38;;;;;;;7.45;78.04;99223.03;5116295;28;20078;-66
2022/02/20 12:38:11;;;;;;;15.82;5.28;;;;;;;7.46;78.00;99211.88;5116380;28;20124;-64
2022/02/20 12:40:55;;;;;;;25.15;5.72;;;;;;;7.47;77.93;99215.31;5116548;28;20074;-65
2022/02/20 12:43:39;;;;;;;12.80;4.63;;;;;;;7.47;78.10;99215.31;5101030;28;20047;-64
2022/02/20 12:46:24;;;;;;;15.85;6.20;;;;;;;7.47;78.31;99216.16;5116124;28;20050;-65
2022/02/20 12:49:12;;;;;;;;;;;;;;;7.47;78.07;99207.56;5116464;28;20153;-64
2022/02/20 12:54:29;;;;;;;19.90;4.93;;;;;;;7.47;78.00;99203.28;5111573;27;20680;-65
2022/02/20 12:57:12;;;;;;;12.05;4.53;;;;;;;7.49;78.21;99205.00;5111456;28;20047;-65
2022/02/20 12:59:58;;;;;;;15.68;5.22;;;;;;;7.49;78.27;99194.69;5111345;28;20104;-65
2022/02/20 13:02:49;;;;;;;18.55;4.78;;;;;;;7.50;78.09;99179.28;5109973;28;20089;-64
2022/02/20 13:05:35;;;;;;;20.30;4.90;;;;;;;7.50;78.14;99166.38;5110192;28;20051;-65
2022/02/20 13:08:24;;;;;;;16.98;5.85;;;;;;;7.52;78.41;99166.38;5110496;28;20055;-65